createdAt,value
2023-01-19T00:00:51.373Z,17.42
2023-01-19T00:03:19.720Z,17.58
2023-01-19T00:05:48.074Z,17.80
2023-01-19T00:08:17.583Z,14.88
2023-01-19T00:10:48.043Z,12.25
2023-01-19T00:13:17.375Z,10.73
2023-01-19T00:15:47.369Z,7.88
2023-01-19T00:18:15.768Z,4.53
2023-01-19T00:20:46.450Z,3.95
2023-01-19T00:23:15.092Z,5.57
2023-01-19T00:25:44.446Z,6.05
2023-01-19T00:28:15.183Z,6.38
2023-01-19T00:30:44.168Z,7.43
2023-01-19T00:33:17.464Z,6.47
2023-01-19T00:35:45.798Z,6.72
2023-01-19T00:38:14.146Z,7.68
2023-01-19T00:40:42.379Z,7.28
2023-01-19T00:43:10.855Z,6.72
2023-01-19T00:45:44.173Z,6.70
2023-01-19T00:48:16.883Z,4.43
2023-01-19T00:50:46.674Z,4.18
2023-01-19T00:53:15.658Z,10.77
2023-01-19T00:55:44.752Z,3.38
2023-01-19T00:58:13.554Z,3.50
2023-01-19T01:00:42.465Z,4.30
2023-01-19T01:03:12.179Z,1.73
2023-01-19T01:05:47.131Z,2.38
2023-01-19T01:08:15.973Z,2.08
2023-01-19T01:10:44.537Z,5.18
2023-01-19T01:13:21.093Z,1.00
2023-01-19T01:15:53.043Z,2.97
2023-01-19T01:18:23.198Z,5.07
2023-01-19T01:20:55.364Z,3.78
2023-01-19T01:23:40.655Z,3.92
2023-01-19T01:26:11.115Z,7.72
2023-01-19T01:28:41.815Z,8.80
2023-01-19T01:31:11.013Z,5.93
2023-01-19T01:33:41.806Z,5.43
2023-01-19T01:36:13.400Z,5.05
2023-01-19T01:38:42.893Z,6.15
2023-01-19T01:41:13.474Z,7.20
2023-01-19T01:43:47.641Z,5.07
2023-01-19T01:46:18.167Z,7.35
2023-01-19T01:48:56.639Z,6.72
2023-01-19T01:51:31.667Z,8.73
2023-01-19T01:54:14.061Z,6.55
2023-01-19T01:56:46.313Z,9.23
2023-01-19T01:59:26.282Z,6.72
2023-01-19T02:02:16.275Z,8.27
2023-01-19T02:04:50.520Z,6.38
2023-01-19T02:07:49.004Z,6.80
2023-01-19T02:10:35.478Z,5.38
2023-01-19T02:13:21.464Z,4.03
2023-01-19T02:15:51.990Z,6.15
2023-01-19T02:18:23.386Z,6.80
2023-01-19T02:21:06.013Z,3.22
2023-01-19T02:23:45.903Z,3.85
2023-01-19T02:26:18.943Z,3.20
2023-01-19T02:28:52.440Z,8.98
2023-01-19T02:31:21.844Z,5.78
2023-01-19T02:33:51.217Z,5.60
2023-01-19T02:36:24.589Z,10.02
2023-01-19T02:38:58.175Z,4.75
2023-01-19T02:41:33.053Z,6.55
2023-01-19T02:44:03.014Z,6.82
2023-01-19T02:46:32.160Z,5.85
2023-01-19T02:49:02.107Z,8.48
2023-01-19T02:51:30.975Z,2.42
2023-01-19T02:54:38.705Z,3.60
2023-01-19T02:57:25.428Z,2.88
2023-01-19T03:00:08.531Z,4.47
2023-01-19T03:02:51.119Z,4.63
2023-01-19T03:05:37.464Z,4.25
2023-01-19T03:08:16.456Z,5.35
2023-01-19T03:10:57.348Z,4.50
2023-01-19T03:13:40.426Z,3.35
2023-01-19T03:16:18.019Z,3.08
2023-01-19T03:18:55.423Z,2.42
2023-01-19T03:21:29.221Z,3.63
2023-01-19T03:24:04.002Z,3.05
2023-01-19T03:26:39.016Z,4.10
2023-01-19T03:29:10.332Z,2.83
2023-01-19T03:31:39.704Z,4.18
2023-01-19T03:34:13.066Z,4.78
2023-01-19T03:36:47.139Z,8.45
2023-01-19T03:39:22.775Z,7.07
2023-01-19T03:41:58.111Z,3.20
2023-01-19T03:44:30.832Z,6.70
2023-01-19T03:47:00.577Z,4.30
2023-01-19T03:49:31.901Z,5.13
2023-01-19T03:52:00.865Z,6.85
2023-01-19T03:54:29.446Z,4.85
2023-01-19T03:56:59.447Z,3.67
2023-01-19T03:59:27.765Z,6.50
2023-01-19T04:01:56.215Z,5.15
2023-01-19T04:04:25.639Z,6.25
2023-01-19T04:06:54.465Z,7.25
2023-01-19T04:09:22.713Z,6.43
2023-01-19T04:11:51.421Z,5.68
2023-01-19T04:14:21.644Z,5.45
2023-01-19T04:16:50.047Z,5.20
2023-01-19T04:19:18.741Z,6.65
2023-01-19T04:21:49.497Z,3.63
2023-01-19T04:24:17.900Z,6.32
2023-01-19T04:26:46.162Z,6.63
2023-01-19T04:29:15.175Z,10.07
2023-01-19T04:31:44.909Z,7.55
2023-01-19T04:34:13.648Z,8.88
2023-01-19T04:36:41.929Z,8.07
2023-01-19T04:39:13.079Z,9.88
2023-01-19T04:41:41.357Z,10.05
2023-01-19T04:44:10.091Z,11.75
2023-01-19T04:46:38.594Z,11.32
2023-01-19T04:49:10.520Z,14.45
2023-01-19T04:51:41.569Z,11.13
2023-01-19T04:54:10.500Z,15.00
2023-01-19T04:56:40.847Z,11.98
2023-01-19T04:59:09.269Z,17.48
2023-01-19T05:01:38.042Z,8.45
2023-01-19T05:04:08.456Z,18.08
2023-01-19T05:06:37.508Z,11.27
2023-01-19T05:09:07.941Z,14.30
2023-01-19T05:11:36.324Z,12.75
2023-01-19T05:14:04.934Z,10.63
2023-01-19T05:16:33.268Z,20.50
2023-01-19T05:19:01.572Z,12.48
2023-01-19T05:21:31.653Z,16.98
2023-01-19T05:24:00.648Z,15.70
2023-01-19T05:26:29.010Z,12.63
2023-01-19T05:28:57.638Z,11.98
2023-01-19T05:31:26.027Z,12.05
2023-01-19T05:33:59.504Z,16.08
2023-01-19T05:36:28.228Z,17.25
2023-01-19T05:38:58.082Z,16.95
2023-01-19T05:41:26.356Z,22.38
2023-01-19T05:43:54.814Z,15.88
2023-01-19T05:46:23.348Z,13.50
2023-01-19T05:48:51.777Z,16.02
2023-01-19T05:51:20.061Z,20.52
2023-01-19T05:53:48.278Z,13.57
2023-01-19T05:56:17.921Z,17.15
2023-01-19T05:58:46.124Z,13.40
2023-01-19T06:01:14.382Z,14.38
2023-01-19T06:03:42.653Z,14.40
2023-01-19T06:06:11.580Z,16.85
2023-01-19T06:08:39.893Z,13.80
2023-01-19T06:11:08.873Z,11.73
2023-01-19T06:13:41.372Z,15.77
2023-01-19T06:16:11.649Z,13.57
2023-01-19T06:18:41.063Z,13.77
2023-01-19T06:21:12.434Z,13.98
2023-01-19T06:23:42.811Z,10.25
2023-01-19T06:26:11.366Z,16.13
2023-01-19T06:28:44.106Z,16.73
2023-01-19T06:31:15.195Z,16.23
2023-01-19T06:33:43.508Z,14.10
2023-01-19T06:36:11.941Z,17.02
2023-01-19T06:38:40.333Z,15.82
2023-01-19T06:41:08.616Z,12.75
2023-01-19T06:43:36.850Z,21.20
2023-01-19T06:46:07.548Z,18.02
2023-01-19T06:48:35.832Z,14.88
2023-01-19T06:51:05.173Z,16.67
2023-01-19T06:53:33.840Z,28.15
2023-01-19T06:56:03.156Z,24.90
2023-01-19T06:58:35.168Z,30.48
2023-01-19T07:01:06.298Z,17.52
2023-01-19T07:03:35.481Z,19.52
2023-01-19T07:06:06.701Z,31.52
2023-01-19T07:08:35.297Z,17.23
2023-01-19T07:11:25.245Z,18.70
2023-01-19T07:13:56.688Z,17.05
2023-01-19T07:16:26.598Z,12.00
2023-01-19T07:18:57.548Z,18.17
2023-01-19T07:21:27.220Z,20.25
2023-01-19T07:23:59.884Z,14.70
2023-01-19T07:26:28.180Z,12.32
2023-01-19T07:28:59.261Z,16.92
2023-01-19T07:31:29.234Z,23.33
2023-01-19T07:33:58.140Z,22.65
2023-01-19T07:36:26.788Z,24.08
2023-01-19T07:38:55.211Z,21.75
2023-01-19T07:41:23.388Z,27.15
2023-01-19T07:43:53.247Z,21.10
2023-01-19T07:46:21.772Z,20.25
2023-01-19T07:48:51.710Z,19.73
2023-01-19T07:51:20.013Z,11.43
2023-01-19T07:53:51.264Z,20.85
2023-01-19T07:56:19.657Z,21.92
2023-01-19T07:58:49.913Z,17.23
2023-01-19T08:01:18.297Z,20.48
2023-01-19T08:03:49.964Z,26.27
2023-01-19T08:06:23.100Z,15.77
2023-01-19T08:08:51.471Z,16.02
2023-01-19T08:11:19.736Z,16.17
2023-01-19T08:13:48.108Z,10.00
2023-01-19T08:16:16.422Z,21.00
2023-01-19T08:18:45.130Z,22.55
2023-01-19T08:21:14.760Z,19.65
2023-01-19T08:23:43.073Z,16.63
2023-01-19T08:26:24.124Z,22.83
2023-01-19T08:28:52.410Z,24.25
2023-01-19T08:31:24.367Z,25.33
2023-01-19T08:33:53.192Z,21.27
2023-01-19T08:36:25.065Z,28.83
2023-01-19T08:38:53.993Z,13.98
2023-01-19T08:41:22.406Z,19.30
2023-01-19T08:43:51.145Z,23.02
2023-01-19T08:46:21.882Z,14.50
2023-01-19T08:48:50.485Z,24.70
2023-01-19T08:51:19.873Z,18.25
2023-01-19T08:53:50.481Z,19.45
2023-01-19T08:56:20.637Z,11.57
2023-01-19T08:58:59.536Z,11.73
2023-01-19T09:01:37.114Z,16.88
2023-01-19T09:04:06.362Z,15.10
2023-01-19T09:06:34.804Z,12.63
2023-01-19T09:09:04.678Z,13.18
2023-01-19T09:11:33.266Z,14.82
2023-01-19T09:14:01.516Z,12.48
2023-01-19T09:16:29.789Z,20.42
2023-01-19T09:18:58.561Z,12.13
2023-01-19T09:21:27.027Z,16.05
2023-01-19T09:23:55.702Z,12.60
2023-01-19T09:26:25.365Z,13.77
2023-01-19T09:28:53.826Z,15.63
2023-01-19T09:31:22.244Z,12.43
2023-01-19T09:33:50.500Z,14.10
2023-01-19T09:36:18.843Z,19.65
2023-01-19T09:38:47.127Z,20.48
2023-01-19T09:41:22.170Z,13.25
2023-01-19T09:43:57.948Z,15.32
2023-01-19T09:46:35.188Z,10.00
2023-01-19T09:49:06.658Z,13.48
2023-01-19T09:51:40.230Z,8.82
2023-01-19T09:54:15.778Z,12.50
2023-01-19T09:56:44.632Z,11.48
2023-01-19T09:59:26.635Z,18.08
2023-01-19T10:02:21.044Z,9.35
2023-01-19T10:05:00.515Z,9.95
2023-01-19T10:07:55.589Z,13.23
2023-01-19T10:10:27.156Z,12.55
2023-01-19T10:13:24.829Z,10.13
2023-01-19T10:16:08.754Z,13.38
2023-01-19T10:18:47.806Z,11.40
2023-01-19T10:21:22.922Z,9.90
2023-01-19T10:23:57.358Z,7.57
2023-01-19T10:26:28.753Z,13.48
2023-01-19T10:29:04.501Z,14.38
2023-01-19T10:31:37.498Z,12.60
2023-01-19T10:34:06.106Z,10.18
2023-01-19T10:36:38.240Z,11.77
2023-01-19T10:39:06.990Z,7.68
2023-01-19T10:41:43.207Z,7.18
2023-01-19T10:44:12.786Z,11.48
2023-01-19T10:46:46.216Z,8.68
2023-01-19T10:49:27.848Z,6.78
2023-01-19T10:51:57.709Z,6.20
2023-01-19T10:54:28.528Z,8.27
2023-01-19T10:56:59.838Z,7.03
2023-01-19T10:59:38.296Z,9.10
2023-01-19T11:02:27.862Z,5.57
2023-01-19T11:04:59.488Z,9.25
2023-01-19T11:07:32.586Z,10.88
2023-01-19T11:10:23.158Z,7.93
2023-01-19T11:13:07.479Z,4.40
2023-01-19T11:15:41.876Z,5.65
2023-01-19T11:18:25.923Z,9.75
2023-01-19T11:20:57.035Z,5.13
2023-01-19T11:23:29.932Z,4.43
2023-01-19T11:26:01.842Z,5.47
2023-01-19T11:28:35.749Z,5.60
2023-01-19T11:31:18.911Z,6.88
2023-01-19T11:33:54.283Z,4.60
2023-01-19T11:36:25.280Z,6.68
2023-01-19T11:38:56.203Z,6.40
2023-01-19T11:41:29.941Z,2.88
2023-01-19T11:44:03.417Z,9.68
2023-01-19T11:46:35.522Z,7.38
2023-01-19T11:49:09.576Z,6.20
2023-01-19T11:51:47.494Z,5.35
2023-01-19T11:54:24.719Z,5.10
2023-01-19T11:56:55.527Z,6.45
2023-01-19T11:59:25.864Z,5.63
2023-01-19T12:01:58.211Z,5.82
2023-01-19T12:04:32.640Z,11.60
2023-01-19T12:07:07.738Z,7.50
2023-01-19T12:09:42.862Z,6.60
2023-01-19T12:12:21.330Z,6.20
2023-01-19T12:14:58.395Z,4.68
2023-01-19T12:17:30.737Z,7.13
2023-01-19T12:20:19.687Z,8.98
2023-01-19T12:22:56.125Z,7.60
2023-01-19T12:25:31.634Z,5.28
2023-01-19T12:28:01.670Z,6.90
2023-01-19T12:30:32.086Z,5.63
2023-01-19T12:33:37.951Z,4.97
2023-01-19T12:36:14.588Z,5.13
2023-01-19T12:38:50.318Z,5.15
2023-01-19T12:41:25.955Z,11.15
2023-01-19T12:44:34.433Z,4.88
2023-01-19T12:47:21.209Z,5.80
2023-01-19T12:49:56.656Z,5.90
2023-01-19T12:52:34.177Z,7.20
2023-01-19T12:55:09.380Z,6.57
2023-01-19T12:57:40.936Z,11.30
2023-01-19T13:00:30.733Z,4.47
2023-01-19T13:03:06.905Z,8.50
2023-01-19T13:05:59.421Z,6.07
2023-01-19T13:09:00.357Z,5.18
2023-01-19T13:11:34.056Z,6.88
2023-01-19T13:14:36.389Z,6.22
2023-01-19T13:17:33.571Z,8.45
2023-01-19T13:20:35.380Z,8.88
2023-01-19T13:23:24.961Z,6.88
2023-01-19T13:26:07.094Z,8.98
2023-01-19T13:28:41.991Z,6.60
2023-01-19T13:31:11.257Z,5.47
2023-01-19T13:33:49.344Z,8.52
2023-01-19T13:36:27.525Z,6.07
2023-01-19T13:38:58.126Z,7.13
2023-01-19T13:41:30.838Z,8.88
2023-01-19T13:44:04.164Z,4.78
2023-01-19T13:46:34.320Z,4.63
2023-01-19T13:49:06.822Z,6.47
2023-01-19T13:51:35.300Z,5.80
2023-01-19T13:54:03.732Z,4.28
2023-01-19T13:56:33.458Z,4.28
2023-01-19T13:59:11.710Z,4.88
2023-01-19T14:01:43.164Z,7.57
2023-01-19T14:04:29.454Z,7.03
2023-01-19T14:07:00.682Z,3.70
2023-01-19T14:09:29.229Z,5.95
2023-01-19T14:12:15.200Z,4.90
2023-01-19T14:14:44.420Z,7.13
2023-01-19T14:17:24.932Z,3.67
2023-01-19T14:19:57.171Z,5.90
2023-01-19T14:22:40.713Z,5.25
2023-01-19T14:25:45.489Z,4.50
2023-01-19T14:28:39.477Z,4.78
2023-01-19T14:31:22.308Z,5.65
2023-01-19T14:33:52.825Z,3.78
2023-01-19T14:36:30.979Z,6.70
2023-01-19T14:39:02.090Z,4.05
2023-01-19T14:41:39.185Z,6.05
2023-01-19T14:44:19.937Z,7.75
2023-01-19T14:46:49.633Z,7.78
2023-01-19T14:49:30.337Z,6.47
2023-01-19T14:51:58.801Z,3.72
2023-01-19T14:54:35.803Z,4.43
2023-01-19T14:57:04.236Z,7.00
2023-01-19T14:59:34.076Z,7.25
2023-01-19T15:02:02.533Z,3.60
2023-01-19T15:04:30.997Z,5.97
2023-01-19T15:06:59.765Z,10.10
2023-01-19T15:09:28.970Z,6.38
2023-01-19T15:11:57.621Z,6.43
2023-01-19T15:14:28.042Z,4.32
2023-01-19T15:17:02.108Z,4.38
2023-01-19T15:19:30.554Z,7.28
2023-01-19T15:22:00.698Z,11.60
2023-01-19T15:24:28.945Z,4.95
2023-01-19T15:27:01.947Z,8.05
2023-01-19T15:29:32.254Z,4.25
2023-01-19T15:32:02.303Z,6.22
2023-01-19T15:34:31.734Z,7.50
2023-01-19T15:37:00.571Z,8.40
2023-01-19T15:39:29.017Z,5.15
2023-01-19T15:41:57.415Z,6.50
2023-01-19T15:44:25.690Z,5.07
2023-01-19T15:46:54.724Z,6.35
2023-01-19T15:49:24.501Z,5.78
2023-01-19T15:51:52.979Z,6.78
2023-01-19T15:54:21.268Z,7.60
2023-01-19T15:56:49.491Z,5.38
2023-01-19T15:59:18.116Z,9.70
2023-01-19T16:01:46.503Z,7.18
2023-01-19T16:04:17.119Z,7.68
2023-01-19T16:06:50.941Z,6.28
2023-01-19T16:09:20.189Z,6.82
2023-01-19T16:11:48.465Z,6.55
2023-01-19T16:14:17.557Z,4.82
2023-01-19T16:16:46.274Z,7.88
2023-01-19T16:19:16.357Z,11.85
2023-01-19T16:21:44.913Z,20.70
2023-01-19T16:24:14.557Z,12.95
2023-01-19T16:26:43.179Z,9.13
2023-01-19T16:29:12.021Z,7.93
2023-01-19T16:31:42.865Z,10.43
2023-01-19T16:34:14.512Z,11.43
2023-01-19T16:36:43.906Z,10.50
2023-01-19T16:39:16.122Z,9.10
2023-01-19T16:41:46.009Z,10.40
2023-01-19T16:44:17.078Z,8.88
2023-01-19T16:46:49.707Z,10.00
2023-01-19T16:49:21.253Z,10.93
2023-01-19T16:51:49.727Z,10.05
2023-01-19T16:54:25.887Z,10.77
2023-01-19T16:56:55.379Z,9.32
2023-01-19T16:59:24.994Z,6.55
2023-01-19T17:01:56.010Z,11.23
2023-01-19T17:04:24.866Z,8.45
2023-01-19T17:06:53.448Z,9.70
2023-01-19T17:09:36.306Z,10.65
2023-01-19T17:12:05.280Z,8.70
2023-01-19T17:14:33.614Z,10.02
2023-01-19T17:17:05.376Z,7.47
2023-01-19T17:19:34.088Z,6.45
2023-01-19T17:22:03.342Z,8.73
2023-01-19T17:24:33.697Z,8.88
2023-01-19T17:27:02.731Z,4.68
2023-01-19T17:29:31.452Z,5.25
2023-01-19T17:32:03.530Z,3.83
2023-01-19T17:34:34.914Z,5.07
2023-01-19T17:37:04.772Z,1.48
2023-01-19T17:39:35.783Z,2.08
2023-01-19T17:42:04.520Z,2.67
2023-01-19T17:44:36.044Z,5.30
2023-01-19T17:47:05.238Z,2.70
2023-01-19T17:49:34.125Z,4.65
2023-01-19T17:52:03.239Z,2.08
2023-01-19T17:54:34.107Z,2.10
2023-01-19T17:57:02.615Z,1.88
2023-01-19T17:59:32.756Z,4.53
2023-01-19T18:02:01.516Z,10.75
2023-01-19T18:04:32.144Z,6.78
2023-01-19T18:07:01.644Z,8.90
2023-01-19T18:09:30.205Z,4.95
2023-01-19T18:11:59.988Z,5.75
2023-01-19T18:14:28.355Z,9.95
2023-01-19T18:17:28.792Z,10.70
2023-01-19T18:19:58.043Z,7.40
2023-01-19T18:22:26.934Z,7.47
2023-01-19T18:24:56.218Z,8.82
2023-01-19T18:27:26.408Z,8.07
2023-01-19T18:29:55.304Z,7.95
2023-01-19T18:32:25.813Z,5.95
2023-01-19T18:34:58.143Z,7.70
2023-01-19T18:37:29.108Z,6.95
2023-01-19T18:40:02.489Z,10.52
2023-01-19T18:42:33.634Z,9.40
2023-01-19T18:45:03.522Z,7.10
2023-01-19T18:47:36.278Z,8.68
2023-01-19T18:50:05.684Z,7.40
2023-01-19T18:52:37.650Z,7.20
2023-01-19T18:55:08.133Z,9.48
2023-01-19T18:57:38.569Z,10.73
2023-01-19T19:00:12.670Z,9.02
2023-01-19T19:02:41.687Z,8.80
2023-01-19T19:05:11.177Z,6.88
2023-01-19T19:07:40.283Z,8.43
2023-01-19T19:10:11.810Z,10.75
2023-01-19T19:12:42.261Z,7.10
2023-01-19T19:15:15.242Z,7.22
2023-01-19T19:17:44.286Z,6.95
2023-01-19T19:20:20.933Z,7.07
2023-01-19T19:22:53.583Z,4.50
2023-01-19T19:25:21.950Z,8.32
2023-01-19T19:27:53.943Z,7.80
2023-01-19T19:30:22.558Z,7.85
2023-01-19T19:32:55.243Z,9.23
2023-01-19T19:35:24.291Z,8.18
2023-01-19T19:37:57.758Z,7.93
2023-01-19T19:40:27.950Z,6.60
2023-01-19T19:43:00.575Z,8.98
2023-01-19T19:45:29.114Z,10.07
2023-01-19T19:47:58.369Z,12.65
2023-01-19T19:50:26.985Z,14.90
2023-01-19T19:53:02.906Z,21.08
2023-01-19T19:55:33.240Z,22.90
2023-01-19T20:36:11.900Z,18.25
2023-01-19T20:38:41.587Z,18.52
2023-01-19T20:41:12.709Z,20.95
2023-01-19T20:43:44.742Z,16.38
2023-01-19T20:46:20.819Z,20.45
2023-01-19T20:48:53.054Z,25.77
2023-01-19T20:51:25.553Z,20.15
2023-01-19T20:54:03.590Z,17.17
2023-01-19T20:56:34.123Z,19.63
2023-01-19T20:59:03.355Z,26.40
2023-01-19T21:01:33.236Z,19.20
2023-01-19T21:04:02.082Z,24.08
2023-01-19T21:06:32.351Z,22.33
2023-01-19T21:09:01.972Z,22.08
2023-01-19T21:11:33.103Z,19.23
2023-01-19T21:14:04.582Z,16.08
2023-01-19T21:16:35.681Z,12.35
2023-01-19T21:25:19.253Z,10.73
2023-01-19T21:27:52.256Z,11.07
2023-01-19T21:31:09.519Z,10.30
2023-01-19T23:01:55.980Z,17.77
2023-01-19T23:04:24.863Z,19.70
2023-01-19T23:06:54.052Z,23.83
2023-01-19T23:09:23.817Z,22.98
2023-01-19T23:11:53.042Z,25.52
2023-01-19T23:14:23.937Z,27.63
2023-01-19T23:16:53.938Z,29.02
2023-01-19T23:19:24.542Z,28.00
2023-01-19T23:21:53.850Z,32.17
2023-01-19T23:24:25.121Z,28.10
2023-01-19T23:26:59.232Z,28.83
2023-01-19T23:29:31.429Z,28.73
2023-01-19T23:32:00.195Z,27.88
2023-01-19T23:34:30.529Z,29.85
2023-01-19T23:36:59.306Z,35.97
2023-01-19T23:39:28.189Z,38.40
2023-01-19T23:41:57.232Z,38.90
2023-01-19T23:44:25.733Z,41.33
2023-01-19T23:46:56.157Z,38.90
2023-01-19T23:49:26.230Z,38.92
2023-01-19T23:51:56.463Z,41.97
2023-01-19T23:54:27.350Z,42.65
2023-01-19T23:56:56.622Z,43.83
2023-01-19T23:59:25.704Z,39.20
